Tiempo atmosférico en la estación meteorológica de Azpeitia, Gipuzkoa (180 m.)



Fecha
DESCASC
Temp. máxima en grados centígrados (hora)
DESCASC
Temp. mínima en grados centígrados (hora)
DESCASC
Temp. media en grados centígrados
DESCASC
Racha de viento máxima en m/sg (hora)
DESCASC
Velocidad máxima media en intervalos de 10 minutos(hora)
DESCASC
Precipitaciones diarias en mm
DESCASC
Precipitaciones de 00:00 a 06:00 en mm
DESCASC
Precipitaciones de 06:00 a 12:00 en mm
DESCASC
Precipitaciones de 12:00 a 18:00 en mm
DESCASC
Precipitaciones de 18:00 a 24:00 en mm
DESCASC
30-11-2020 14.5 (14:50) 4.7 (08:20) 9.6 4.44 (15:00) 1.39 (14:50) 0 0 0 0 0
29-11-2020 18.4 (14:30) 7.1 (00:00) 12.7 3.33 (11:10) 1.67 (11:10) 0 0 0 0 0
28-11-2020 17.7 (15:00) 6.1 (00:00) 11.9 3.89 (16:00) 1.39 (16:00) 0 0 0 0 0
27-11-2020 18.4 (15:20) 9 (00:00) 13.7 11.39 (01:00) 4.17 (01:40) 0 0 0 0 0
26-11-2020 17.3 (11:30) 12.2 (00:00) 14.7 11.67 (22:10) 3.06 (18:30) 0 0 0 0 0
25-11-2020 15.2 (15:10) 10.6 (00:00) 12.9 8.61 (02:10) 3.33 (02:10) 0 0 0 0 0
24-11-2020 16.6 (14:30) 4.2 (00:00) 10.4 5.83 (22:20) 2.5 (08:00) 0 0 0 0 0
23-11-2020 14.6 (14:50) 2.3 (00:00) 8.5 3.33 (15:30) 1.39 (14:30) 0 0 0 0 0
22-11-2020 16 (14:10) 2.7 (00:00) 9.4 5.28 (14:30) 1.67 (14:50) 0 0 0 0 0
21-11-2020 12.1 (14:40) 2.8 (00:00) 7.5 4.72 (15:40) 1.67 (15:00) 0 0 0 0 0
20-11-2020 14 (14:10) 5.6 (00:00) 9.8 4.72 (14:20) 2.5 (15:10) 0.4 0.2 0.2 0 0
19-11-2020 12.8 (09:10) 9.6 (00:00) 11.2 6.11 (09:40) 2.22 (14:50) 5.6 0 2.8 1.8 1
18-11-2020 23.6 (14:20) 10.8 (00:00) 17.2 6.94 (02:20) 2.78 (01:10) 0 0 0 0 0
17-11-2020 19.5 (15:30) 5.4 (00:00) 12.5 5.28 (21:00) 2.22 (23:30) 0 0 0 0 0
16-11-2020 16.1 (14:10) 7.7 (00:00) 11.9 3.33 (15:20) 1.67 (11:30) 2.8 2.4 0.2 0.2 0
15-11-2020 22.6 (14:10) 12.6 (00:00) 17.6 10.83 (02:00) 3.89 (02:00) 5.8 0 0 0.4 5.4
14-11-2020 18.7 (15:50) 13 (00:00) 15.9 10.28 (12:30) 5 (12:40) 0 0 0 0 0
13-11-2020 19.8 (14:10) 11.7 (00:00) 15.7 6.94 (23:59) 2.5 (02:30) 0 0 0 0 0
12-11-2020 22.1 (15:20) 8.7 (00:00) 15.4 5.28 (17:20) 1.67 (17:20) 0 0 0 0 0
11-11-2020 19.7 (15:30) 8.5 (00:00) 14.1 7.5 (18:30) 3.33 (18:30) 0 0 0 0 0
10-11-2020 15.2 (16:10) 9.1 (00:00) 12.2 3.89 (12:30) 1.67 (09:50) 4 0.6 1.2 2.2 0
09-11-2020 20.5 (13:30) 9.9 (00:00) 15.2 9.44 (14:10) 4.44 (01:10) 0 0 0 0 0
08-11-2020 19.4 (14:10) 14.1 (00:00) 16.8 9.72 (20:20) 3.89 (09:00) 0 0 0 0 0
07-11-2020 19.9 (00:00) 14.4 (00:00) 17.1 11.11 (02:50) 3.61 (01:10) 8.6 0 8.4 0 0.2
06-11-2020 21.1 (14:10) 15 (00:00) 18.1 15.56 (19:50) 6.94 (08:30) 0 0 0 0 0
05-11-2020 16.5 (14:20) 5.8 (00:00) 11.2 6.67 (21:50) 2.22 (14:00) 0 0 0 0 0
04-11-2020 12.7 (11:30) 7.2 (00:00) 9.9 5.83 (14:00) 2.5 (07:20) 4.8 3 1.8 0 0
03-11-2020 13.1 (11:50) 8.3 (00:00) 10.7 6.94 (12:10) 3.33 (12:10) 12.8 5.4 0.6 4.8 2
02-11-2020 23.8 (14:40) 12.7 (00:00) 18.2 11.39 (16:00) 5.28 (15:50) 0.4 0 0 0 0.4

Gráficas

Temp. máximas Temp. mínimas Temp. medias Precipitaciones Rachas de viento máximas Velocidades máximas media en intervalos de 10 minutos

Datos horarios

Fecha y hora oficial Temperatura (ºC) Velocidad del viento (km/h) Dirección del viento Racha (km/h) Dirección de racha Precipitación (mm) Presión (hPa) Tendencia (hPa) Humedad (%)
2020-12-01 23:00:00 9.3 5 Nordeste 18 Nordeste 3 -- -- 82
2020-12-01 22:00:00 9.5 5 Norte 22 Norte 3.6 -- -- 82
2020-12-01 21:00:00 10.2 7 Noroeste 27 Oeste 5.6 -- -- 78
2020-12-01 20:00:00 10.4 12 Oeste 29 Oeste 1 -- -- 77
2020-12-01 19:00:00 11.4 10 Oeste 19 Oeste 0 -- -- 61
2020-12-01 18:00:00 11.4 9 Oeste 23 Oeste 0 -- -- 58
2020-12-01 17:00:00 11.9 14 Oeste 24 Oeste 0 -- -- 50
2020-12-01 16:00:00 12.6 2 Nordeste 6 Nordeste 0 -- -- 49
2020-12-01 15:00:00 12.4 0 Calma 6 Sudoeste 0 -- -- 53
2020-12-01 14:00:00 11.4 2 Oeste 5 Este 0 -- -- 63
2020-12-01 13:00:00 9.2 3 Este 6 Este 0 -- -- 85
2020-12-01 12:00:00 7.5 2 Nordeste 4 Nordeste 0 -- -- 86
2020-12-01 11:00:00 6 2 Este 5 Este 0 -- -- 86
2020-12-01 10:00:00 5.1 2 Oeste 4 Este 0 -- -- 86
2020-12-01 09:00:00 4.7 2 Sudoeste 7 Sudoeste 0 -- -- 85
2020-12-01 08:00:00 4.8 3 Sudoeste 4 Sudoeste 0 -- -- 85
2020-12-01 07:00:00 5.2 3 Oeste 6 Oeste 0 -- -- 84
2020-12-01 06:00:00 6.1 2 Sudeste 4 Sudoeste 0 -- -- 84
2020-12-01 05:00:00 6.7 2 Este 5 Sudeste 0 -- -- 84
2020-12-01 04:00:00 6.8 0 Calma 5 Sudoeste 0 -- -- 84
2020-12-01 03:00:00 7.4 0 Calma 5 Sudoeste 0 -- -- 83
2020-12-01 02:00:00 7.6 0 Calma 4 Oeste 0 -- -- 83
2020-12-01 01:00:00 7.7 0 Calma 5 Sudoeste 0 -- -- 81
2020-12-01 00:00:00 8.5 5 Sudoeste 6 Sudoeste 0 -- -- 82
2020-11-30 23:00:00 9.3 0 Calma 10 Noroeste 0 -- -- 80
2020-11-30 22:00:00 9.8 3 Sudoeste 10 Este 0 -- -- 81
2020-11-30 21:00:00 10.3 3 Nordeste 11 Norte 0 -- -- 81
2020-11-30 20:00:00 11 2 Sur 9 Nordeste 0 -- -- 79
2020-11-30 19:00:00 11.4 3 Nordeste 10 Nordeste 0 -- -- 78
2020-11-30 18:00:00 11.6 4 Norte 12 Norte 0 -- -- 77
2020-11-30 17:00:00 11.9 4 Nordeste 14 Norte 0 -- -- 75
2020-11-30 16:00:00 12.8 4 Nordeste 12 Nordeste 0 -- -- 71
2020-11-30 15:00:00 14.3 4 Nordeste 16 Nordeste 0 -- -- 63
2020-11-30 14:00:00 14 4 Nordeste 12 Nordeste 0 -- -- 65
2020-11-30 13:00:00 11.9 4 Nordeste 12 Norte 0 -- -- 75
2020-11-30 12:00:00 9.6 3 Este 5 Este 0 -- -- 75
2020-11-30 11:00:00 7.6 0 Calma 5 Sudeste 0 -- -- 83
2020-11-30 10:00:00 5.9 0 Calma 3 Norte 0 -- -- 84
2020-11-30 09:00:00 4.9 0 Calma 4 Sudeste 0 -- -- 85
2020-11-30 08:00:00 5 2 Oeste 5 Sudeste 0 -- -- 84
2020-11-30 07:00:00 5.3 0 Calma 4 Noroeste 0 -- -- 84
2020-11-30 06:00:00 5.5 0 Calma 2 Oeste 0 -- -- 84
2020-11-30 05:00:00 5.7 0 Calma 4 Sudeste 0 -- -- 83
2020-11-30 04:00:00 6.1 0 Calma 4 Oeste 0 -- -- 83
2020-11-30 03:00:00 6.3 0 Calma 4 Sudeste 0 -- -- 82
2020-11-30 02:00:00 6.5 0 Calma 4 Sudeste 0 -- -- 82
2020-11-30 01:00:00 6.9 0 Calma 4 Noroeste 0 -- -- 81
2020-11-30 00:00:00 7.3 0 Calma 2 Sudeste 0 -- -- 81
2020-11-29 23:00:00 7.8 0 Calma 3 Oeste 0 -- -- 79
2020-11-29 22:00:00 8.4 0 Calma 3 Este 0 -- -- 77
2020-11-29 21:00:00 9.2 2 Sur 4 Oeste 0 -- -- 74
2020-11-29 20:00:00 10 0 Calma 2 Este 0 -- -- 71
2020-11-29 19:00:00 11.2 2 Sudeste 4 Sudoeste 0 -- -- 65
2020-11-29 18:00:00 12.6 2 Sur 6 Sudoeste 0 -- -- 57
2020-11-29 17:00:00 14.5 0 Calma 8 Sur 0 -- -- 49
2020-11-29 16:00:00 15.8 3 Sur 5 Sur 0 -- -- 43
2020-11-29 15:00:00 18.3 0 Calma 6 Este 0 -- -- 35
2020-11-29 14:00:00 17.5 2 Nordeste 5 Nordeste 0 -- -- 37
2020-11-29 13:00:00 14.6 3 Noroeste 5 Noroeste 0 -- -- 50
2020-11-29 12:00:00 13.5 3 Sudoeste 12 Sudoeste 0 -- -- 55
2020-11-29 11:00:00 12.1 3 Sudoeste 10 Este 0 -- -- 62
2020-11-29 10:00:00 9.7 2 Norte 5 Oeste 0 -- -- 75
2020-11-29 09:00:00 7.5 2 Norte 6 Sudeste 0 -- -- 80
2020-11-29 08:00:00 7.1 0 Calma 5 Oeste 0 -- -- 80
2020-11-29 07:00:00 7.2 2 Noroeste 6 Sudeste 0 -- -- 80
2020-11-29 06:00:00 7.3 0 Calma 8 Oeste 0 -- -- 79
2020-11-29 05:00:00 7.2 4 Oeste 6 Sudoeste 0 -- -- 79
2020-11-29 04:00:00 7.4 0 Calma 4 Sudoeste 0 -- -- 77
2020-11-29 03:00:00 7.8 3 Sudoeste 6 Sudoeste 0 -- -- 75
2020-11-29 02:00:00 8.2 0 Calma 5 Sudeste 0 -- -- 72
2020-11-29 01:00:00 8.9 0 Calma 9 Oeste 0 -- -- 66
2020-11-29 00:00:00 9.4 5 Sudeste 7 Sudeste 0 -- -- 65
2020-11-28 23:00:00 10.1 2 Noroeste 6 Sudoeste 0 -- -- 60
2020-11-28 22:00:00 11.1 2 Sudeste 5 Este 0 -- -- 56
2020-11-28 21:00:00 11.5 2 Sur 8 Oeste 0 -- -- 54
2020-11-28 20:00:00 11.3 3 Sur 9 Sudeste 0 -- -- 55
2020-11-28 19:00:00 11.7 2 Sudeste 6 Este 0 -- -- 62
2020-11-28 18:00:00 12.7 0 Calma 9 Sur 0 -- -- 61
2020-11-28 17:00:00 14.1 4 Norte 13 Nordeste 0 -- -- 58
2020-11-28 16:00:00 15.1 5 Nordeste 14 Norte 0 -- -- 54
2020-11-28 15:00:00 17.7 0 Calma 5 Sudoeste 0 -- -- 39
2020-11-28 14:00:00 16.3 2 Sudoeste 4 Sudoeste 0 -- -- 43
2020-11-28 13:00:00 13 0 Calma 5 Sudeste 0 -- -- 58
2020-11-28 12:00:00 11.6 0 Calma 7 Oeste 0 -- -- 67
2020-11-28 11:00:00 10.7 0 Calma 2 Este 0 -- -- 69
2020-11-28 10:00:00 7.5 2 Nordeste 5 Este 0 -- -- 83
2020-11-28 09:00:00 6.1 3 Este 5 Sudeste 0 -- -- 83
2020-11-28 08:00:00 6.1 0 Calma 4 Sudeste 0 -- -- 83
2020-11-28 07:00:00 6.2 0 Calma 4 Este 0 -- -- 82
2020-11-28 06:00:00 6.6 0 Calma 5 Sudoeste 0 -- -- 82
2020-11-28 05:00:00 6.9 3 Oeste 4 Noroeste 0 -- -- 82
2020-11-28 04:00:00 7.3 2 Este 5 Este 0 -- -- 81
2020-11-28 03:00:00 7.5 3 Oeste 4 Sudoeste 0 -- -- 80
2020-11-28 02:00:00 7.9 0 Calma 3 Sudoeste 0 -- -- 79
2020-11-28 01:00:00 8.3 0 Calma 5 Sudoeste 0 -- -- 78
2020-11-28 00:00:00 9 0 Calma 4 Oeste 0 -- -- 75
2020-11-27 23:00:00 9.5 0 Calma 4 Sudeste 0 -- -- 73
2020-11-27 22:00:00 10.1 0 Calma 4 Este 0 -- -- 68
2020-11-27 21:00:00 11.2 3 Sudoeste 5 Sudoeste 0 -- -- 63
2020-11-27 20:00:00 12.4 4 Oeste 6 Sudoeste -- -- -- 57
2020-11-27 19:00:00 14 2 Sudoeste 6 Sudeste 0 -- -- 52
2020-11-27 18:00:00 14.9 5 Sudeste 8 Sudeste 0 -- -- 45
2020-11-27 17:00:00 16.6 4 Sudoeste 10 Sur 0 -- -- 37
2020-11-27 16:00:00 17.9 3 Noroeste 5 Nordeste 0 -- -- 32
2020-11-27 15:00:00 18 0 Calma 11 Sudoeste 0 -- -- 30
2020-11-27 14:00:00 17.5 2 Sudoeste 15 Sudoeste 0 -- -- 31
2020-11-27 13:00:00 17.6 6 Sudeste 21 Este 0 -- -- 32
2020-11-27 12:00:00 16.4 6 Sur 15 Sur 0 -- -- 38
2020-11-27 11:00:00 14.8 2 Sudoeste 12 Sudeste 0 -- -- 45
2020-11-27 10:00:00 15.4 4 Noroeste 12 Sudeste 0 -- -- 41
2020-11-27 09:00:00 15.4 5 Sudoeste 19 Sudoeste 0 -- -- 40
2020-11-27 08:00:00 15.7 12 Sudoeste 23 Sudoeste 0 -- -- 37
2020-11-27 07:00:00 15.8 5 Oeste 23 Sudoeste 0 -- -- 39
2020-11-27 06:00:00 16.1 5 Sur 18 Nordeste 0 -- -- 39
2020-11-27 05:00:00 16.2 8 Sudeste 22 Sudeste 0 -- -- 39
2020-11-27 04:00:00 16.1 5 Sur 23 Este 0 -- -- 38
2020-11-27 03:00:00 16.4 6 Este 25 Sudeste 0 -- -- 36
2020-11-27 02:00:00 16.5 12 Sudeste 38 Sudeste 0 -- -- 36
2020-11-27 01:00:00 16.4 10 Sur 41 Sudeste 0 -- -- 38
2020-11-27 00:00:00 16.4 6 Sudeste 30 Sudoeste 0 -- -- 37
2020-11-26 23:00:00 16.4 9 Sur 42 Sudeste 0 -- -- 37
2020-11-26 22:00:00 16.3 6 Sudeste 19 Este 0 -- -- 37
2020-11-26 21:00:00 16 5 Sur 22 Sudeste 0 -- -- 37
2020-11-26 20:00:00 15.7 5 Sur 23 Sudoeste 0 -- -- 38
2020-11-26 19:00:00 16.2 8 Sudeste 31 Este 0 -- -- 36
2020-11-26 18:00:00 15.8 4 Sudoeste 12 Sudoeste 0 -- -- 39
2020-11-26 17:00:00 16.5 5 Sur 16 Sur 0 -- -- 35
2020-11-26 16:00:00 16.7 6 Sur 23 Sudeste 0 -- -- 34
2020-11-26 15:00:00 17 6 Oeste 26 Sudeste 0 -- -- 33
2020-11-26 14:00:00 17.2 5 Sudoeste 28 Sudeste 0 -- -- 33
2020-11-26 13:00:00 17 6 Norte 31 Sudeste 0 -- -- 32
2020-11-26 12:00:00 17 4 Nordeste 21 Sudeste 0 -- -- 33
2020-11-26 11:00:00 16.5 5 Nordeste 21 Sudoeste 0 -- -- 33
2020-11-26 10:00:00 15.4 6 Sudoeste 27 Sudoeste 0 -- -- 37
2020-11-26 09:00:00 14.6 7 Sudeste 20 Este 0 -- -- 39
2020-11-26 08:00:00 14.3 11 Sudoeste 28 Sudoeste 0 -- -- 39
2020-11-26 07:00:00 13.8 8 Sudoeste 28 Sudeste 0 -- -- 41
2020-11-26 06:00:00 13.4 7 Sudoeste 26 Sudoeste 0 -- -- 42
2020-11-26 05:00:00 13.7 5 Este 26 Sudeste 0 -- -- 41
2020-11-26 04:00:00 13.6 7 Sudeste 28 Sudeste 0 -- -- 41
2020-11-26 03:00:00 13.6 6 Sudeste 22 Sudeste 0 -- -- 41
2020-11-26 02:00:00 13.6 6 Sur 24 Sudeste 0 -- -- 41
2020-11-26 01:00:00 13 5 Sur 17 Oeste 0 -- -- 42
2020-11-26 00:00:00 12.3 6 Sudoeste 14 Sudoeste 0 -- -- 44
2020-11-25 23:00:00 13.3 8 Sudoeste 20 Sur 0 -- -- 39
2020-11-25 22:00:00 13.6 5 Sudoeste 30 Sudeste 0 -- -- 40
2020-11-25 21:00:00 13.7 4 Sudeste 23 Sudoeste 0 -- -- 38
2020-11-25 20:00:00 12.8 5 Oeste 19 Sudeste 0 -- -- 39
2020-11-25 19:00:00 13.3 5 Sudoeste 14 Sudeste 0 -- -- 36
2020-11-25 18:00:00 13.7 6 Sudeste 20 Este 0 -- -- 35
2020-11-25 17:00:00 14.4 6 Sur 25 Sudeste 0 -- -- 31
2020-11-25 16:00:00 14.7 6 Sur 24 Sudoeste 0 -- -- 30
2020-11-25 15:00:00 15.1 7 Sudoeste 26 Oeste 0 -- -- 31
2020-11-25 14:00:00 14.6 6 Sur 30 Sudoeste 0 -- -- 33
2020-11-25 13:00:00 -- -- -- -- -- -- -- -- --
2020-11-25 12:00:00 12.7 4 Sudoeste 24 Sudoeste 0 -- -- 42
2020-11-25 11:00:00 12.8 5 Sur 26 Sudoeste 0 -- -- 42
2020-11-25 10:00:00 11.9 6 Sur 22 Sudeste 0 -- -- 45
2020-11-25 09:00:00 11 4 Noroeste 26 Sudeste 0 -- -- 49
2020-11-25 08:00:00 11.2 8 Sudeste 26 Sudeste 0 -- -- 48
2020-11-25 07:00:00 11.1 7 Sudeste 25 Sudeste 0 -- -- 47
2020-11-25 06:00:00 11.2 10 Sudeste 28 Sudeste 0 -- -- 47
2020-11-25 05:00:00 11.4 10 Sudeste 28 Sudeste 0 -- -- 47
2020-11-25 04:00:00 10.6 5 Sur 21 Sudeste 0 -- -- 49
2020-11-25 03:00:00 11.5 8 Sudeste 31 Sudeste 0 -- -- 44
2020-11-25 02:00:00 12.1 10 Sur 27 Sudeste 0 -- -- 37
2020-11-25 01:00:00 11.9 7 Sur 18 Este 0 -- -- 34
2020-11-25 00:00:00 11.4 4 Sudeste 16 Este 0 -- -- 35
2020-11-24 23:00:00 11.1 4 Sudeste 21 Sudeste 0 -- -- 37
2020-11-24 22:00:00 10.8 4 Sudoeste 10 Sudeste 0 -- -- 38
2020-11-24 21:00:00 11.6 5 Sudoeste 13 Sudeste 0 -- -- 36
2020-11-24 20:00:00 12.4 5 Sur 17 Este 0 -- -- 31
2020-11-24 19:00:00 12.7 5 Sudoeste 15 Sur 0 -- -- 31
2020-11-24 18:00:00 13 4 Sudoeste 17 Sudeste 0 -- -- 30
2020-11-24 17:00:00 14.6 4 Sur 15 Sudeste 0 -- -- 28
2020-11-24 16:00:00 15.9 4 Sudeste 12 Sudeste 0 -- -- 29
2020-11-24 15:00:00 16.4 5 Sudeste 13 Sudeste 0 -- -- 23
2020-11-24 14:00:00 15.7 2 Este 8 Sudoeste 0 -- -- 26
2020-11-24 13:00:00 14.8 6 Oeste 9 Oeste 0 -- -- 28
2020-11-24 12:00:00 13.9 2 Oeste 12 Este 0 -- -- 33
2020-11-24 11:00:00 14.8 4 Sudeste 10 Este 0 -- -- 24
2020-11-24 10:00:00 11.4 6 Sudoeste 13 Oeste 0 -- -- 31
2020-11-24 09:00:00 9.4 8 Sudoeste 13 Oeste 0 -- -- 42
2020-11-24 08:00:00 8.8 9 Sudoeste 15 Sur 0 -- -- 43
2020-11-24 07:00:00 7.4 8 Sudoeste 12 Sudoeste 0 -- -- 53
2020-11-24 06:00:00 4.7 3 Este 6 Este 0 -- -- 81
2020-11-24 05:00:00 4.3 0 Calma 6 Sudeste 0 -- -- 83
2020-11-24 04:00:00 4.2 0 Calma 4 Este 0 -- -- 84
2020-11-24 03:00:00 4.4 0 Calma 3 Este 0 -- -- 83
2020-11-24 02:00:00 4.7 0 Calma 5 Oeste 0 -- -- 83
2020-11-24 01:00:00 4.9 2 Sudeste 4 Sudeste 0 -- -- 83
2020-11-24 00:00:00 5.1 0 Calma 4 Sudoeste 0 -- -- 81
2020-11-23 23:00:00 5.6 0 Calma 4 Oeste 0 -- -- 81
2020-11-23 22:00:00 6.2 0 Calma 3 Sudeste 0 -- -- 80
2020-11-23 21:00:00 6.7 0 Calma 3 Oeste 0 -- -- 77
2020-11-23 20:00:00 7.6 2 Este 4 Oeste 0 -- -- 74
2020-11-23 19:00:00 8.6 0 Calma 4 Sudoeste 0 -- -- 67
2020-11-23 18:00:00 10.5 0 Calma 8 Norte 0 -- -- 62
2020-11-23 17:00:00 12.3 3 Nordeste 11 Norte 0 -- -- 58
2020-11-23 16:00:00 13.5 4 Norte 12 Noroeste 0 -- -- 47
2020-11-23 15:00:00 14.6 3 Norte 10 Norte 0 -- -- 42
2020-11-23 14:00:00 12.8 2 Norte 6 Noroeste 0 -- -- 47
2020-11-23 13:00:00 10 2 Noroeste 5 Noroeste 0 -- -- 74
2020-11-23 12:00:00 8.4 0 Calma 4 Sur 0 -- -- 80
2020-11-23 11:00:00 6.3 0 Calma 5 Este 0 -- -- 87
2020-11-23 10:00:00 3.1 5 Sudeste 6 Sudeste 0 -- -- 86
2020-11-23 09:00:00 2.5 2 Sur 5 Este 0 -- -- 85
2020-11-23 08:00:00 2.4 4 Este 7 Sudeste 0 -- -- 85
2020-11-23 07:00:00 2.9 2 Oeste 5 Sudeste 0 -- -- 85
2020-11-23 06:00:00 3.2 3 Sudeste 6 Sudeste 0 -- -- 84
2020-11-23 05:00:00 3.4 3 Oeste 5 Oeste 0 -- -- 84
2020-11-23 04:00:00 3.5 3 Sudeste 4 Sudeste 0 -- -- 84
2020-11-23 03:00:00 3.6 2 Este 5 Sudeste 0 -- -- 83
2020-11-23 02:00:00 4 0 Calma 5 Sudeste 0 -- -- 83
2020-11-23 01:00:00 4.3 2 Oeste 4 Oeste 0 -- -- 82
2020-11-23 00:00:00 4.6 0 Calma 3 Sudeste 0 -- -- 81
2020-11-22 23:00:00 5.1 0 Calma 4 Sudoeste 0 -- -- 80
2020-11-22 22:00:00 5.6 0 Calma 4 Sudeste 0 -- -- 79
2020-11-22 21:00:00 6.4 0 Calma 3 Este 0 -- -- 76
2020-11-22 20:00:00 7.2 0 Calma 3 Oeste 0 -- -- 71
2020-11-22 19:00:00 8.7 2 Oeste 5 Sudoeste 0 -- -- 62
2020-11-22 18:00:00 10.7 2 Noroeste 10 Oeste 0 -- -- 51
2020-11-22 17:00:00 12.2 5 Norte 14 Norte 0 -- -- 43
2020-11-22 16:00:00 13.6 5 Nordeste 18 Norte 0 -- -- 37
2020-11-22 15:00:00 14.8 5 Nordeste 19 Nordeste 0 -- -- 31
2020-11-22 14:00:00 15.6 0 Calma 4 Sudeste 0 -- -- 24
2020-11-22 13:00:00 11.6 0 Calma 4 Sudeste 0 -- -- 43
2020-11-22 12:00:00 10.8 0 Calma 3 Este 0 -- -- 46
2020-11-22 11:00:00 9.3 0 Calma 4 Sudeste 0 -- -- 59
2020-11-22 10:00:00 6.6 0 Calma 4 Sudoeste 0 -- -- 66
2020-11-22 09:00:00 3.6 0 Calma 5 Sudeste 0 -- -- 75
2020-11-22 08:00:00 3 0 Calma 5 Oeste 0 -- -- 76
2020-11-22 07:00:00 3 0 Calma 4 Sudeste 0 -- -- 79
2020-11-22 06:00:00 2.9 0 Calma 4 Este 0 -- -- 81
2020-11-22 05:00:00 2.9 0 Calma 5 Sudeste 0 -- -- 83
2020-11-22 04:00:00 2.7 0 Calma 5 Este 0 -- -- 84
2020-11-22 03:00:00 3 2 Este 5 Sudeste 0 -- -- 84
2020-11-22 02:00:00 3 0 Calma 5 Sudeste 0 -- -- 83
2020-11-22 01:00:00 3.2 0 Calma 6 Oeste 0 -- -- 83
2020-11-22 00:00:00 3.4 4 Oeste 6 Sudoeste 0 -- -- 82
2020-11-21 23:00:00 3.8 3 Sur 4 Sudoeste 0 -- -- 82
2020-11-21 22:00:00 4.4 0 Calma 4 Sudeste 0 -- -- 80
2020-11-21 21:00:00 5 2 Oeste 4 Sudoeste 0 -- -- 77
2020-11-21 20:00:00 5.7 2 Sudeste 5 Oeste 0 -- -- 75
2020-11-21 19:00:00 6.8 3 Sudoeste 7 Sudoeste 0 -- -- 67
2020-11-21 18:00:00 8.3 0 Calma 11 Nordeste 0 -- -- 58
2020-11-21 17:00:00 9.4 4 Nordeste 17 Norte 0 -- -- 52
2020-11-21 16:00:00 11 6 Nordeste 17 Nordeste 0 -- -- 47
2020-11-21 15:00:00 12 6 Norte 15 Norte 0 -- -- 46
2020-11-21 14:00:00 11.4 3 Norte 9 Norte 0 -- -- 51
2020-11-21 13:00:00 7 2 Sudeste 5 Este 0 -- -- 86
2020-11-21 12:00:00 5.2 0 Calma 6 Sudoeste 0 -- -- 86
2020-11-21 11:00:00 3.5 2 Norte 5 Este 0 -- -- 86
2020-11-21 10:00:00 3 2 Este 7 Este 0 -- -- 85
2020-11-21 09:00:00 2.8 3 Este 6 Este 0 -- -- 85
2020-11-21 08:00:00 3 3 Este 5 Este 0 -- -- 85
2020-11-21 07:00:00 3.1 2 Sudeste 4 Sudeste 0 -- -- 85
2020-11-21 06:00:00 3.5 3 Este 5 Este 0 -- -- 85
2020-11-21 05:00:00 3.7 3 Sudoeste 6 Sudoeste 0 -- -- 85
2020-11-21 04:00:00 3.9 0 Calma 6 Sudoeste 0 -- -- 84
2020-11-21 03:00:00 4.3 2 Sudoeste 3 Sudoeste 0 -- -- 83
2020-11-21 02:00:00 4.5 4 Sudoeste 5 Sudoeste 0 -- -- 82
2020-11-21 01:00:00 4.9 0 Calma 3 Sudoeste 0 -- -- 81
2020-11-21 00:00:00 5.6 0 Calma 5 Oeste 0 -- -- 80
2020-11-20 23:00:00 6 0 Calma 4 Sudoeste 0 -- -- 79
2020-11-20 22:00:00 6.3 4 Sudoeste 6 Sudoeste 0 -- -- 79
2020-11-20 21:00:00 6.3 0 Calma 3 Sudoeste 0 -- -- 76
2020-11-20 20:00:00 7.3 0 Calma 5 Sudoeste 0 -- -- 70
2020-11-20 19:00:00 8.5 2 Sudeste 9 Este 0 -- -- 63
2020-11-20 18:00:00 10.1 3 Este 12 Norte 0 -- -- 53
2020-11-20 17:00:00 10.9 4 Norte 13 Norte 0 -- -- 51
2020-11-20 16:00:00 11.6 5 Norte 17 Norte 0 -- -- 45
2020-11-20 15:00:00 12.8 8 Norte 17 Norte 0 -- -- 43
2020-11-20 14:00:00 13.7 4 Norte 14 Norte 0 -- -- 45
2020-11-20 13:00:00 12.8 5 Nordeste 13 Nordeste 0 -- -- 52
2020-11-20 12:00:00 12.4 5 Norte 15 Este 0.2 -- -- 55
2020-11-20 11:00:00 12.7 7 Este 17 Este 0 -- -- 57
2020-11-20 10:00:00 10.1 2 Norte 5 Este 0 -- -- 83
2020-11-20 09:00:00 9 3 Sudeste 10 Sudeste 0 -- -- 84
2020-11-20 08:00:00 8.7 3 Oeste 8 Sur 0 -- -- 84
2020-11-20 07:00:00 8.6 4 Oeste 8 Sudoeste 0 -- -- 84
2020-11-20 06:00:00 8.6 0 Calma 5 Sudeste 0 -- -- 84
2020-11-20 05:00:00 8.7 0 Calma 4 Sudoeste 0 -- -- 84
2020-11-20 04:00:00 8.9 2 Sur 5 Sudoeste 0 -- -- 83
2020-11-20 03:00:00 9.3 0 Calma 5 Sudeste 0 -- -- 83
2020-11-20 02:00:00 9.4 4 Sudoeste 8 Sudoeste 0 -- -- 83
2020-11-20 01:00:00 9.3 4 Sudoeste 5 Sudoeste 0.2 -- -- 83
2020-11-20 00:00:00 9.6 0 Calma 9 Sur 0.8 -- -- 84
2020-11-19 23:00:00 9.6 2 Oeste 5 Noroeste 0 -- -- 84
2020-11-19 22:00:00 9.6 2 Sudeste 5 Sudeste 0 -- -- 83
2020-11-19 21:00:00 9.6 0 Calma 4 Sudeste 0 -- -- 83
2020-11-19 20:00:00 9.7 3 Sudeste 5 Sudeste 0 -- -- 82
2020-11-19 19:00:00 10 2 Sur 5 Sur 0.2 -- -- 81
2020-11-19 18:00:00 10.2 2 Sudeste 12 Nordeste 0.4 -- -- 80
2020-11-19 17:00:00 10.5 4 Nordeste 17 Norte 0.6 -- -- 81
2020-11-19 16:00:00 11.1 6 Nordeste 17 Norte 0.6 -- -- 80
2020-11-19 15:00:00 12 7 Norte 19 Nordeste 0 -- -- 73
2020-11-19 14:00:00 12 5 Nordeste 18 Nordeste 0 -- -- 80
2020-11-19 13:00:00 12.4 4 Norte 13 Este 0.2 -- -- 82
2020-11-19 12:00:00 12.2 5 Este 18 Nordeste 0.4 -- -- 83
2020-11-19 11:00:00 12.2 5 Este 19 Nordeste 0.2 -- -- 84
2020-11-19 10:00:00 12.6 6 Nordeste 22 Nordeste 0.8 -- -- 84
2020-11-19 09:00:00 12.7 4 Noroeste 9 Norte 1.4 -- -- 85
2020-11-19 08:00:00 11 2 Oeste 5 Sudoeste 0 -- -- 83
2020-11-19 07:00:00 10.8 2 Sudeste 6 Oeste 0 -- -- 82
2020-11-19 06:00:00 10.6 2 Nordeste 9 Este 0 -- -- 82
2020-11-19 05:00:00 10.3 3 Oeste 7 Oeste 0 -- -- 82
2020-11-19 04:00:00 9.9 4 Sudeste 8 Sudoeste 0 -- -- 83
2020-11-19 03:00:00 9.9 2 Sudeste 11 Sudeste 0 -- -- 82
2020-11-19 02:00:00 9.9 3 Este 10 Sudeste 0 -- -- 81
2020-11-19 01:00:00 10.3 3 Este 5 Este 0 -- -- 80
2020-11-19 00:00:00 10.8 2 Este 4 Sudeste 0 -- -- 79
2020-11-18 23:00:00 11.4 0 Calma 6 Sudeste 0 -- -- 77
2020-11-18 22:00:00 11.7 3 Sudeste 6 Sudeste 0 -- -- 75
2020-11-18 21:00:00 12.5 0 Calma 4 Sudoeste 0 -- -- 70
2020-11-18 20:00:00 13.7 0 Calma 6 Sudoeste 0 -- -- 63
2020-11-18 19:00:00 15.3 3 Oeste 6 Oeste 0 -- -- 55
2020-11-18 18:00:00 17.7 3 Norte 12 Nordeste 0 -- -- 42
2020-11-18 17:00:00 19.5 4 Nordeste 17 Norte 0 -- -- 36
2020-11-18 16:00:00 22.3 3 Sudoeste 5 Oeste 0 -- -- 32
2020-11-18 15:00:00 23.5 2 Oeste 6 Sudoeste 0 -- -- 28
2020-11-18 14:00:00 23.1 4 Oeste 8 Oeste 0 -- -- 27
2020-11-18 13:00:00 20.4 3 Noroeste 6 Oeste 0 -- -- 32
2020-11-18 12:00:00 19.9 3 Oeste 6 Norte 0 -- -- 32
2020-11-18 11:00:00 18.8 0 Calma 12 Sudeste 0 -- -- 34
2020-11-18 10:00:00 16.6 3 Este 13 Sudoeste 0 -- -- 41
2020-11-18 09:00:00 15.2 9 Sudoeste 15 Este 0 -- -- 39
2020-11-18 08:00:00 14.9 6 Sudeste 23 Este 0 -- -- 37
2020-11-18 07:00:00 15.8 7 Sur 19 Este 0 -- -- 33
2020-11-18 06:00:00 14.7 6 Sur 12 Sur 0 -- -- 39
2020-11-18 05:00:00 13.8 3 Sur 11 Sudeste 0 -- -- 42
2020-11-18 04:00:00 14.6 4 Sur 13 Sudeste 0 -- -- 37
2020-11-18 03:00:00 14.7 3 Sudoeste 25 Este 0 -- -- 36
2020-11-18 02:00:00 15.3 5 Sur 18 Oeste 0 -- -- 29
2020-11-18 01:00:00 14.1 9 Sudoeste 13 Sudoeste 0 -- -- 35
2020-11-18 00:00:00 15.5 6 Sudoeste 17 Sudoeste 0 -- -- 31
2020-11-17 23:00:00 15.4 5 Sudoeste 15 Sudoeste 0 -- -- 31
2020-11-17 22:00:00 16 4 Sudoeste 17 Este 0 -- -- 32
2020-11-17 21:00:00 13.5 5 Sudeste 19 Este 0 -- -- 46
2020-11-17 20:00:00 12.3 2 Oeste 7 Oeste 0 -- -- 58
2020-11-17 19:00:00 13.1 4 Oeste 6 Sudoeste 0 -- -- 51
2020-11-17 18:00:00 14.4 0 Calma 4 Sudeste 0 -- -- 51
2020-11-17 17:00:00 16.3 3 Sudeste 6 Sudeste 0 -- -- 41
2020-11-17 16:00:00 18.7 3 Sudoeste 6 Sudoeste 0 -- -- 34
2020-11-17 15:00:00 19 0 Calma 3 Sudoeste 0 -- -- 31
2020-11-17 14:00:00 17.1 0 Calma 4 Este 0 -- -- 49
2020-11-17 13:00:00 14 3 Oeste 6 Oeste 0 -- -- 58
2020-11-17 12:00:00 13.1 0 Calma 4 Sudeste 0 -- -- 61
2020-11-17 11:00:00 10.8 0 Calma 4 Este 0 -- -- 75
2020-11-17 10:00:00 7.4 2 Sudeste 4 Sudeste 0 -- -- 86
2020-11-17 09:00:00 5.8 0 Calma 4 Oeste 0 -- -- 85
2020-11-17 08:00:00 5.5 0 Calma 3 Este 0 -- -- 85
2020-11-17 07:00:00 5.7 0 Calma 4 Este 0 -- -- 85
2020-11-17 06:00:00 5.9 0 Calma 5 Sudoeste 0 -- -- 85
2020-11-17 05:00:00 5.9 0 Calma 5 Este 0 -- -- 84
2020-11-17 04:00:00 6.3 3 Este 7 Sudoeste 0 -- -- 84
2020-11-17 03:00:00 6.5 2 Sudeste 6 Este 0 -- -- 84
2020-11-17 02:00:00 6.8 3 Sudeste 8 Sur 0 -- -- 84
2020-11-17 01:00:00 7.3 0 Calma 5 Sudeste 0 -- -- 84
2020-11-17 00:00:00 7.7 0 Calma 5 Sudeste 0 -- -- 83
2020-11-16 23:00:00 8 3 Sur 6 Oeste 0 -- -- 82
2020-11-16 22:00:00 8.4 3 Sudeste 5 Sudoeste 0 -- -- 82
2020-11-16 21:00:00 9 2 Sur 6 Sudoeste 0 -- -- 80
2020-11-16 20:00:00 9.8 2 Noroeste 4 Sudoeste 0 -- -- 78
2020-11-16 19:00:00 10.8 2 Sudoeste 6 Este 0 -- -- 73
2020-11-16 18:00:00 12.4 0 Calma 6 Este 0 -- -- 64
2020-11-16 17:00:00 13.8 0 Calma 5 Norte 0 -- -- 56
2020-11-16 16:00:00 14.7 3 Nordeste 12 Nordeste 0 -- -- 52
2020-11-16 15:00:00 14.9 4 Nordeste 12 Nordeste 0 -- -- 52
2020-11-16 14:00:00 15.6 4 Nordeste 8 Nordeste 0 -- -- 53
2020-11-16 13:00:00 14.5 2 Oeste 7 Sur 0.2 -- -- 59
2020-11-16 12:00:00 13.5 2 Este 10 Sudeste 0 -- -- 75
2020-11-16 11:00:00 12.4 3 Sur 9 Sudoeste 0 -- -- 79
2020-11-16 10:00:00 11.8 4 Sudoeste 8 Sudoeste 0 -- -- 82
2020-11-16 09:00:00 11.3 0 Calma 4 Sudeste 0 -- -- 83
2020-11-16 08:00:00 11.2 0 Calma 4 Sudeste 0 -- -- 82
2020-11-16 07:00:00 11.4 2 Sudeste 6 Sur 0.2 -- -- 82
2020-11-16 06:00:00 11.5 2 Sur 6 Noroeste 0.6 -- -- 82
2020-11-16 05:00:00 11.7 0 Calma 4 Sur 0 -- -- 82
2020-11-16 04:00:00 11.7 0 Calma 9 Sudeste 1 -- -- 82
2020-11-16 03:00:00 12 4 Este 8 Sudeste 0.2 -- -- 83
2020-11-16 02:00:00 12 3 Sudeste 10 Sudeste 0 -- -- 83
2020-11-16 01:00:00 12.2 3 Este 6 Este 0.6 -- -- 81
2020-11-16 00:00:00 12.6 0 Calma 6 Sur 0 -- -- 78
2020-11-15 23:00:00 12.8 5 Sudoeste 18 Sudoeste 0 -- -- 74
2020-11-15 22:00:00 12.9 4 Nordeste 14 Norte 0.6 -- -- 80
2020-11-15 21:00:00 13.4 4 Norte 19 Norte 1 -- -- 81
2020-11-15 20:00:00 13.9 3 Sudoeste 16 Sudoeste 2.2 -- -- 80
2020-11-15 19:00:00 14.2 8 Sudoeste 20 Sudoeste 1.6 -- -- 77
2020-11-15 18:00:00 14.8 3 Sudoeste 12 Oeste 0.4 -- -- 79
2020-11-15 17:00:00 15.6 3 Nordeste 14 Norte 0 -- -- 76
2020-11-15 16:00:00 16.1 6 Nordeste 25 Nordeste 0 -- -- 70
2020-11-15 15:00:00 20.1 9 Norte 28 Nordeste 0 -- -- 48
2020-11-15 14:00:00 22.5 7 Oeste 28 Sur 0 -- -- 33
2020-11-15 13:00:00 20.7 13 Sur 31 Sudoeste 0 -- -- 36
2020-11-15 12:00:00 20.4 8 Sudeste 32 Sudoeste 0 -- -- 36
2020-11-15 11:00:00 20 9 Oeste 36 Sudoeste 0 -- -- 37
2020-11-15 10:00:00 19.4 7 Nordeste 39 Sudoeste 0 -- -- 39
2020-11-15 09:00:00 19.2 11 Sudoeste 27 Oeste 0 -- -- 36
2020-11-15 08:00:00 18.8 7 Sur 32 Sudoeste 0 -- -- 38
2020-11-15 07:00:00 17.9 9 Sudoeste 29 Sudoeste 0 -- -- 41
2020-11-15 06:00:00 18 8 Sudeste 27 Sur 0 -- -- 39
2020-11-15 05:00:00 17.3 7 Sudeste 36 Este 0 -- -- 41
2020-11-15 04:00:00 16.8 8 Sudeste 34 Sudoeste 0 -- -- 43
2020-11-15 03:00:00 18 4 Norte 38 Sudoeste 0 -- -- 40
2020-11-15 02:00:00 18.1 14 Sur 39 Sur 0 -- -- 40
2020-11-15 01:00:00 15.7 8 Sudeste 22 Este 0 -- -- 47
2020-11-15 00:00:00 14.5 4 Sudeste 13 Este 0 -- -- 51
2020-11-14 23:00:00 14.1 2 Sudoeste 11 Sudeste 0 -- -- 53
2020-11-14 22:00:00 14.7 5 Sur 14 Sudeste 0 -- -- 49
2020-11-14 21:00:00 15.5 8 Sudeste 20 Este 0 -- -- 45
2020-11-14 20:00:00 15.1 4 Sur 17 Este 0 -- -- 45
2020-11-14 19:00:00 15.3 7 Sudeste 29 Sudeste 0 -- -- 43
2020-11-14 18:00:00 16.3 11 Sudeste 28 Sudeste 0 -- -- 39
2020-11-14 17:00:00 17.1 10 Sudeste 31 Sudeste 0 -- -- 37
2020-11-14 16:00:00 18.6 14 Sudeste 35 Este 0 -- -- 32
2020-11-14 15:00:00 18.3 15 Sudeste 25 Sudeste 0 -- -- 32
2020-11-14 14:00:00 17.7 12 Este 31 Sudeste 0 -- -- 34
2020-11-14 13:00:00 17.2 17 Sudeste 37 Sudeste 0 -- -- 36
2020-11-14 12:00:00 17.2 11 Este 32 Este 0 -- -- 36
2020-11-14 11:00:00 15.6 7 Sudeste 26 Sudeste 0 -- -- 40
2020-11-14 10:00:00 14.6 9 Sudeste 28 Sudeste 0 -- -- 42
2020-11-14 09:00:00 14 9 Sudeste 29 Sudeste 0 -- -- 45
2020-11-14 08:00:00 13 6 Sudeste 29 Sudeste 0 -- -- 47
2020-11-14 07:00:00 13.7 11 Sudeste 34 Este 0 -- -- 42
2020-11-14 06:00:00 13.8 12 Sudeste 30 Sur 0 -- -- 42
2020-11-14 05:00:00 13.9 7 Sur 32 Sur 0 -- -- 42
2020-11-14 04:00:00 14.1 12 Sudoeste 31 Sur 0 -- -- 41
2020-11-14 03:00:00 14 9 Sur 26 Sur 0 -- -- 42
2020-11-14 02:00:00 13.5 5 Este 17 Sudeste 0 -- -- 45
2020-11-14 01:00:00 13.7 4 Norte 18 Sudeste 0 -- -- 44
2020-11-14 00:00:00 14.3 9 Sudeste 25 Sudeste 0 -- -- 42
2020-11-13 23:00:00 13.6 4 Sudoeste 13 Sudoeste 0 -- -- 46
2020-11-13 22:00:00 11.9 4 Sudoeste 9 Sudoeste 0 -- -- 52
2020-11-13 21:00:00 11.7 2 Sur 7 Oeste 0 -- -- 57
2020-11-13 20:00:00 12.4 2 Este 8 Oeste 0 -- -- 54
2020-11-13 19:00:00 13.7 2 Este 7 Sudoeste 0 -- -- 48
2020-11-13 18:00:00 15.7 3 Sur 16 Sudeste 0 -- -- 38
2020-11-13 17:00:00 16.6 3 Sur 10 Sudeste 0 -- -- 39
2020-11-13 16:00:00 19.7 3 Sudeste 11 Sudeste 0 -- -- 28
2020-11-13 15:00:00 19.3 6 Sudeste 22 Este 0 -- -- 28
2020-11-13 14:00:00 19.7 5 Sudeste 17 Este 0 -- -- 27
2020-11-13 13:00:00 18.4 6 Sudeste 17 Sudeste 0 -- -- 32
2020-11-13 12:00:00 17.4 4 Oeste 10 Sudoeste 0 -- -- 37
2020-11-13 11:00:00 14.9 7 Sudoeste 10 Sudoeste 0 -- -- 45
2020-11-13 10:00:00 14.9 6 Sudoeste 11 Oeste 0 -- -- 44
2020-11-13 09:00:00 14.2 6 Sudoeste 12 Oeste 0 -- -- 45
2020-11-13 08:00:00 13.9 6 Sudoeste 15 Oeste 0 -- -- 43
2020-11-13 07:00:00 13.9 2 Sudoeste 16 Sudeste 0 -- -- 44
2020-11-13 06:00:00 15 4 Sudeste 21 Sur 0 -- -- 35
2020-11-13 05:00:00 15.2 5 Sudoeste 17 Sudoeste 0 -- -- 32
2020-11-13 04:00:00 15.2 4 Oeste 14 Nordeste 0 -- -- 30
2020-11-13 03:00:00 15.7 5 Oeste 16 Sudoeste 0 -- -- 29
2020-11-13 02:00:00 15.9 4 Sur 16 Sur 0 -- -- 29
2020-11-13 01:00:00 15.7 5 Sur 16 Sudoeste 0 -- -- 30
2020-11-13 00:00:00 15.3 5 Sur 19 Sudeste 0 -- -- 30
2020-11-12 23:00:00 12.4 2 Noroeste 7 Noroeste 0 -- -- 46
2020-11-12 22:00:00 12.6 2 Sudeste 6 Sudoeste 0 -- -- 47
2020-11-12 21:00:00 13.2 2 Sudoeste 6 Norte 0 -- -- 45
2020-11-12 20:00:00 14.5 0 Calma 6 Oeste 0 -- -- 38
2020-11-12 19:00:00 15.6 3 Sudoeste 10 Este 0 -- -- 35
2020-11-12 18:00:00 17.1 3 Sur 19 Sudeste 0 -- -- 34
2020-11-12 17:00:00 18.7 5 Sudeste 12 Sudeste 0 -- -- 31
2020-11-12 16:00:00 21.5 0 Calma 5 Sudoeste 0 -- -- 33
2020-11-12 15:00:00 21.6 0 Calma 5 Noroeste 0 -- -- 28
2020-11-12 14:00:00 20.7 3 Noroeste 5 Oeste 0 -- -- 30
2020-11-12 13:00:00 18.2 3 Oeste 5 Noroeste 0 -- -- 38
2020-11-12 12:00:00 17.2 2 Oeste 6 Oeste 0 -- -- 42
2020-11-12 11:00:00 13.5 0 Calma 4 Noroeste 0 -- -- 64
2020-11-12 10:00:00 11.2 0 Calma 4 Sudeste 0 -- -- 72
2020-11-12 09:00:00 9.6 2 Este 6 Sudoeste 0 -- -- 72
2020-11-12 08:00:00 8.7 0 Calma 5 Sudoeste 0 -- -- 71
2020-11-12 07:00:00 8.9 2 Sur 4 Sudoeste 0 -- -- 69
2020-11-12 06:00:00 9.6 2 Sudeste 4 Sudoeste 0 -- -- 65
2020-11-12 05:00:00 10.2 3 Sudoeste 7 Sudoeste 0 -- -- 62
2020-11-12 04:00:00 11.1 0 Calma 6 Sudeste 0 -- -- 57
2020-11-12 03:00:00 11.7 3 Oeste 5 Sudoeste 0 -- -- 53
2020-11-12 02:00:00 12.3 0 Calma 5 Sudeste 0 -- -- 51
2020-11-12 01:00:00 12.7 0 Calma 4 Sudoeste 0 -- -- 50
2020-11-12 00:00:00 14 3 Sur 11 Sudoeste 0 -- -- 42
2020-11-11 23:00:00 15 7 Sudoeste 14 Oeste 0 -- -- 36
2020-11-11 22:00:00 15.6 6 Sudoeste 13 Sur 0 -- -- 35
2020-11-11 21:00:00 15.6 8 Sudoeste 15 Sudoeste 0 -- -- 35
2020-11-11 20:00:00 16.7 5 Sudoeste 19 Sudoeste 0 -- -- 30
2020-11-11 19:00:00 16.9 3 Sur 27 Sur 0 -- -- 28
2020-11-11 18:00:00 16.2 6 Sudeste 22 Sudeste 0 -- -- 32
2020-11-11 17:00:00 17.9 6 Sudeste 26 Sur 0 -- -- 30
2020-11-11 16:00:00 19.4 9 Sur 23 Sur 0 -- -- 25
2020-11-11 15:00:00 19.2 7 Sudeste 19 Sudeste 0 -- -- 29
2020-11-11 14:00:00 18.9 5 Sudeste 22 Sudeste 0 -- -- 33
2020-11-11 13:00:00 17.2 6 Este 23 Sudeste 0 -- -- 34
2020-11-11 12:00:00 17.1 10 Sudeste 24 Este 0 -- -- 36
2020-11-11 11:00:00 16.3 4 Sur 15 Sudeste 0 -- -- 42
2020-11-11 10:00:00 14.1 6 Sudoeste 16 Sudoeste 0 -- -- 51
2020-11-11 09:00:00 12.8 4 Sudoeste 13 Sudoeste 0 -- -- 57
2020-11-11 08:00:00 12.3 5 Oeste 16 Sur 0 -- -- 59
2020-11-11 07:00:00 10.7 8 Sudoeste 18 Oeste 0 -- -- 73
2020-11-11 06:00:00 9.5 9 Sudoeste 14 Sudoeste 0 -- -- 86
2020-11-11 05:00:00 8.5 5 Sudeste 8 Sudeste 0 -- -- 85
2020-11-11 04:00:00 9.3 3 Sur 7 Sudoeste 0 -- -- 85
2020-11-11 03:00:00 9.6 3 Sur 6 Oeste 0 -- -- 85
2020-11-11 02:00:00 9.9 2 Sur 4 Sur 0 -- -- 85
2020-11-11 01:00:00 9.3 3 Sudeste 6 Sudeste 0 -- -- 85
2020-11-11 00:00:00 9.6 2 Sudeste 5 Este 0 -- -- 84
2020-11-10 23:00:00 10 3 Sudeste 6 Oeste 0 -- -- 83
2020-11-10 22:00:00 10.7 0 Calma 5 Sudeste 0 -- -- 83
2020-11-10 21:00:00 10.8 3 Este 7 Oeste 0 -- -- 82
2020-11-10 20:00:00 11.2 0 Calma 5 Sudeste 0 -- -- 81
2020-11-10 19:00:00 12 2 Oeste 4 Oeste 0 -- -- 79
2020-11-10 18:00:00 13.2 0 Calma 6 Norte 0 -- -- 74
2020-11-10 17:00:00 14.4 4 Norte 10 Norte 0 -- -- 68
2020-11-10 16:00:00 15 3 Oeste 5 Oeste 0 -- -- 72
2020-11-10 15:00:00 14.8 4 Oeste 6 Oeste 0 -- -- 72
2020-11-10 14:00:00 14.8 3 Norte 6 Este 0.2 -- -- 72
2020-11-10 13:00:00 14.2 2 Nordeste 14 Nordeste 2 -- -- 74
2020-11-10 12:00:00 14.4 4 Este 7 Nordeste 0 -- -- 75
2020-11-10 11:00:00 13.4 2 Sudeste 5 Noroeste 0 -- -- 80
2020-11-10 10:00:00 11.6 4 Oeste 9 Sudoeste 0.2 -- -- 83
2020-11-10 09:00:00 10.8 2 Sur 5 Sudoeste 0.6 -- -- 83
2020-11-10 08:00:00 10.4 3 Sudeste 6 Este 0.2 -- -- 83
2020-11-10 07:00:00 10.3 2 Este 5 Sur 0.2 -- -- 83
2020-11-10 06:00:00 10 0 Calma 8 Sudoeste 0 -- -- 82
2020-11-10 05:00:00 9.8 0 Calma 5 Este 0.6 -- -- 82
2020-11-10 04:00:00 9.8 2 Oeste 4 Sudoeste 0 -- -- 82
2020-11-10 03:00:00 9.2 2 Noroeste 5 Este 0 -- -- 82
2020-11-10 02:00:00 9.1 0 Calma 4 Sudoeste 0 -- -- 81
2020-11-10 01:00:00 9.4 3 Sudoeste 4 Sudoeste 0 -- -- 80
2020-11-10 00:00:00 9.9 0 Calma 4 Sudoeste 0 -- -- 77
2020-11-09 23:00:00 10.6 0 Calma 5 Sudeste 0 -- -- 75
2020-11-09 22:00:00 11 0 Calma 5 Sudoeste 0 -- -- 73
2020-11-09 21:00:00 11.7 3 Oeste 6 Oeste 0 -- -- 68
2020-11-09 20:00:00 12.7 2 Sudoeste 6 Sudoeste 0 -- -- 62
2020-11-09 19:00:00 14.1 0 Calma 9 Sudeste 0 -- -- 56
2020-11-09 18:00:00 15.7 5 Sudeste 6 Sudeste 0 -- -- 49
2020-11-09 17:00:00 16.9 2 Sur 5 Sur 0 -- -- 43
2020-11-09 16:00:00 19.1 2 Oeste 17 Sudoeste 0 -- -- 33
2020-11-09 15:00:00 20.2 5 Sudoeste 34 Oeste 0 -- -- 27
2020-11-09 14:00:00 20.2 13 Oeste 32 Oeste 0 -- -- 26
2020-11-09 13:00:00 19.6 4 Oeste 18 Sudoeste 0 -- -- 29
2020-11-09 12:00:00 18.6 3 Noroeste 14 Sudeste 0 -- -- 33
2020-11-09 11:00:00 17 2 Nordeste 23 Sudeste 0 -- -- 38
2020-11-09 10:00:00 16 5 Sur 14 Sudeste 0 -- -- 40
2020-11-09 09:00:00 15.2 6 Sudoeste 13 Sudoeste 0 -- -- 43
2020-11-09 08:00:00 15.4 10 Sudoeste 24 Sudoeste 0 -- -- 41
2020-11-09 07:00:00 15.7 10 Sudoeste 18 Sur 0 -- -- 39
2020-11-09 06:00:00 15.3 6 Sudoeste 18 Sudoeste 0 -- -- 40
2020-11-09 05:00:00 16 11 Sudoeste 21 Sudoeste 0 -- -- 37
2020-11-09 04:00:00 15.7 8 Sudoeste 20 Sudeste 0 -- -- 37
2020-11-09 03:00:00 15.7 5 Sur 23 Sudeste 0 -- -- 38
2020-11-09 02:00:00 16.4 9 Sudeste 32 Sudeste 0 -- -- 36
2020-11-09 01:00:00 16.7 14 Sudeste 34 Este 0 -- -- 36
2020-11-09 00:00:00 16.8 8 Sur 24 Este 0 -- -- 36
2020-11-08 23:00:00 16.9 9 Sudeste 26 Sudeste 0 -- -- 34
2020-11-08 22:00:00 16.9 4 Sudeste 19 Nordeste 0 -- -- 37
2020-11-08 21:00:00 17 5 Sudoeste 35 Este 0 -- -- 36
2020-11-08 20:00:00 17.3 10 Sudeste 34 Sudeste 0 -- -- 36
2020-11-08 19:00:00 17.3 8 Sudeste 22 Sudeste 0 -- -- 37
2020-11-08 18:00:00 16.8 6 Sudeste 22 Sudeste 0 -- -- 39
2020-11-08 17:00:00 18.2 6 Sur 24 Sudeste 0 -- -- 35
2020-11-08 16:00:00 19 6 Sur 30 Sudeste 0 -- -- 31
2020-11-08 15:00:00 18.8 9 Sudeste 28 Sur 0 -- -- 32
2020-11-08 14:00:00 19.1 5 Sur 28 Sudeste 0 -- -- 32
2020-11-08 13:00:00 18.1 5 Sudoeste 22 Este 0 -- -- 34
2020-11-08 12:00:00 19.2 6 Sudeste 23 Sudoeste 0 -- -- 30
2020-11-08 11:00:00 18.7 5 Este 19 Sur 0 -- -- 31
2020-11-08 10:00:00 17.2 8 Sudoeste 23 Sudeste 0 -- -- 35
2020-11-08 09:00:00 16 14 Sudoeste 27 Sur 0 -- -- 38
2020-11-08 08:00:00 16.1 10 Sudeste 28 Sudeste 0 -- -- 37
2020-11-08 07:00:00 15.9 9 Sudeste 22 Sudeste 0 -- -- 40
2020-11-08 06:00:00 15 6 Sur 16 Sudeste 0 -- -- 43
2020-11-08 05:00:00 15.1 7 Sudeste 18 Sudeste 0 -- -- 42
2020-11-08 04:00:00 15.8 4 Sudoeste 24 Sudoeste 0 -- -- 42
2020-11-08 03:00:00 14.8 3 Sudoeste 13 Sudeste 0 -- -- 47
2020-11-08 02:00:00 14.2 2 Sudeste 10 Sur 0 -- -- 53
2020-11-08 01:00:00 14.1 2 Sudeste 9 Este 0 -- -- 52
2020-11-08 00:00:00 14.4 3 Sur 6 Sur 0 -- -- 50
2020-11-07 23:00:00 15.1 3 Oeste 7 Sudoeste 0 -- -- 49
2020-11-07 22:00:00 15.4 3 Sudoeste 9 Sur 0 -- -- 49
2020-11-07 21:00:00 15.7 0 Calma 15 Sur 0 -- -- 47
2020-11-07 20:00:00 16.1 4 Oeste 15 Sur 0 -- -- 47
2020-11-07 19:00:00 16.9 4 Este 20 Oeste 0.2 -- -- 43
2020-11-07 18:00:00 17.8 6 Sur 21 Sur 0 -- -- 39
2020-11-07 17:00:00 17.6 3 Este 18 Sudeste 0 -- -- 45
2020-11-07 16:00:00 17.2 4 Sur 27 Sudeste 0 -- -- 52
2020-11-07 15:00:00 17.5 9 Sudeste 21 Sudeste 0 -- -- 48
2020-11-07 14:00:00 17.6 4 Nordeste 24 Sudeste 0 -- -- 49
2020-11-07 13:00:00 17.8 2 Este 13 Este 0 -- -- 49
2020-11-07 12:00:00 16.8 4 Sur 14 Oeste 0 -- -- 51
2020-11-07 11:00:00 15.4 3 Sur 12 Oeste 0 -- -- 67
2020-11-07 10:00:00 15.1 6 Sudoeste 10 Sudoeste 0.4 -- -- 76
2020-11-07 09:00:00 14.8 3 Sudeste 13 Sudoeste 2 -- -- 77
2020-11-07 08:00:00 16 9 Sudoeste 14 Sudoeste 5.4 -- -- 76
2020-11-07 07:00:00 18.1 4 Sur 29 Sur 0.6 -- -- 57
2020-11-07 06:00:00 19.3 6 Sudoeste 23 Este 0 -- -- 43
2020-11-07 05:00:00 19.6 6 Sur 21 Este 0 -- -- 41
2020-11-07 04:00:00 19.7 4 Sudeste 28 Sur 0 -- -- 40
2020-11-07 03:00:00 19.8 7 Este 40 Sudeste 0 -- -- 40
2020-11-07 02:00:00 19.7 9 Sudeste 36 Sudeste 0 -- -- 40
2020-11-07 01:00:00 19.7 10 Este 37 Sudeste 0 -- -- 39
2020-11-07 00:00:00 19.9 13 Sur 38 Sur 0 -- -- 39
2020-11-06 23:00:00 20.2 14 Sudeste 43 Este 0 -- -- 37
2020-11-06 22:00:00 20.1 6 Sudeste 30 Sudeste 0 -- -- 37
2020-11-06 21:00:00 20.3 12 Sudeste 37 Sudeste 0 -- -- 36
2020-11-06 20:00:00 20.5 15 Sudeste 56 Sudeste 0 -- -- 36
2020-11-06 19:00:00 20.6 17 Sudeste 52 Sudeste 0 -- -- 35
2020-11-06 18:00:00 20.4 20 Sudeste 42 Sudeste 0 -- -- 36
2020-11-06 17:00:00 20.4 10 Sur 47 Sudeste 0 -- -- 36
2020-11-06 16:00:00 20.5 15 Sudeste 51 Este 0 -- -- 35
2020-11-06 15:00:00 20.8 15 Sudeste 39 Sudeste 0 -- -- 34
2020-11-06 14:00:00 21 12 Sur 51 Sudeste 0 -- -- 36
2020-11-06 13:00:00 20.4 8 Sudeste 53 Sudoeste 0 -- -- 39
2020-11-06 12:00:00 20.4 15 Sudeste 52 Sur 0 -- -- 38
2020-11-06 11:00:00 19.7 11 Sudeste 41 Sudeste 0 -- -- 41
2020-11-06 10:00:00 18.9 12 Sudeste 36 Este 0 -- -- 42
2020-11-06 09:00:00 18.4 18 Sudeste 51 Este 0 -- -- 43
2020-11-06 08:00:00 18 11 Sudeste 37 Este 0 -- -- 43
2020-11-06 07:00:00 17.4 7 Este 35 Este 0 -- -- 46
2020-11-06 06:00:00 17 11 Sudeste 30 Este 0 -- -- 48
2020-11-06 05:00:00 16.7 6 Sudeste 31 Sudeste 0 -- -- 49
2020-11-06 04:00:00 16.6 13 Sudeste 34 Sudeste 0 -- -- 50
2020-11-06 03:00:00 16.7 7 Sudeste 30 Este 0 -- -- 48
2020-11-06 02:00:00 15.6 4 Sur 10 Este 0 -- -- 52
2020-11-06 01:00:00 15.5 4 Sur 15 Sudeste 0 -- -- 49
2020-11-06 00:00:00 15.1 0 Calma 18 Sudeste 0 -- -- 53
2020-11-05 23:00:00 15.5 4 Sur 13 Oeste 0 -- -- 51
2020-11-05 22:00:00 13.9 3 Sur 24 Este 0 -- -- 58
2020-11-05 21:00:00 11.5 3 Sudeste 8 Este 0 -- -- 71
2020-11-05 20:00:00 11.4 4 Sudeste 8 Sudeste 0 -- -- 72
2020-11-05 19:00:00 11.8 4 Sudeste 8 Sudeste 0 -- -- 66
2020-11-05 18:00:00 12.8 3 Noroeste 10 Norte 0 -- -- 59
2020-11-05 17:00:00 13.7 5 Noroeste 17 Norte 0 -- -- 54
2020-11-05 16:00:00 15 7 Norte 23 Norte 0 -- -- 47
2020-11-05 15:00:00 16 7 Norte 20 Nordeste 0 -- -- 45
2020-11-05 14:00:00 16.1 8 Norte 17 Noroeste 0 -- -- 44
2020-11-05 13:00:00 14.6 3 Noroeste 6 Noroeste 0 -- -- 44
2020-11-05 12:00:00 13.2 0 Calma 7 Sudeste 0 -- -- 48
2020-11-05 11:00:00 11.1 2 Este 6 Este 0 -- -- 56
2020-11-05 10:00:00 8.5 3 Sudoeste 5 Oeste 0 -- -- 76
2020-11-05 09:00:00 6.1 0 Calma 3 Este 0 -- -- 83
2020-11-05 08:00:00 5.8 2 Sudeste 3 Sudoeste 0 -- -- 81
2020-11-05 07:00:00 6.4 0 Calma 3 Sudeste 0 -- -- 80
2020-11-05 06:00:00 6.7 2 Este 5 Sudoeste 0 -- -- 80
2020-11-05 05:00:00 6.7 2 Sudoeste 4 Sudoeste 0 -- -- 78
2020-11-05 04:00:00 7.4 2 Sudeste 3 Sudeste 0 -- -- 73
2020-11-05 03:00:00 8.1 0 Calma 4 Noroeste 0 -- -- 72
2020-11-05 02:00:00 8.1 3 Sudeste 5 Sudeste 0 -- -- 73
2020-11-05 01:00:00 8.4 2 Oeste 12 Este 0 -- -- 66
2020-11-05 00:00:00 8.9 4 Sudeste 12 Nordeste 0 -- -- 58
2020-11-04 23:00:00 9.5 4 Nordeste 14 Nordeste 0 -- -- 53
2020-11-04 22:00:00 9.8 4 Nordeste 14 Este 0 -- -- 52
2020-11-04 21:00:00 10 4 Nordeste 13 Este 0 -- -- 52
2020-11-04 20:00:00 10 5 Nordeste 16 Este 0 -- -- 50
2020-11-04 19:00:00 10.1 5 Nordeste 15 Nordeste 0 -- -- 53
2020-11-04 18:00:00 10.4 6 Nordeste 14 Norte 0 -- -- 53
2020-11-04 17:00:00 10.8 5 Nordeste 18 Nordeste 0 -- -- 53
2020-11-04 16:00:00 11.5 7 Este 16 Nordeste 0 -- -- 50
2020-11-04 15:00:00 11.8 5 Nordeste 17 Norte 0 -- -- 53
2020-11-04 14:00:00 11.9 6 Nordeste 21 Norte 0 -- -- 54
2020-11-04 13:00:00 12.1 5 Nordeste 15 Norte 0 -- -- 52
2020-11-04 12:00:00 12.3 5 Nordeste 17 Norte 0.2 -- -- 50
2020-11-04 11:00:00 11.9 4 Nordeste 12 Nordeste 0 -- -- 58
2020-11-04 10:00:00 9.4 4 Oeste 7 Oeste 0 -- -- 81
2020-11-04 09:00:00 7.7 2 Este 8 Sudeste 0 -- -- 85
2020-11-04 08:00:00 7.5 4 Sur 15 Sudoeste 0.8 -- -- 84
2020-11-04 07:00:00 7.5 2 Nordeste 8 Sudeste 0.8 -- -- 84
2020-11-04 06:00:00 7.4 0 Calma 8 Sudeste 0.6 -- -- 84
2020-11-04 05:00:00 7.3 5 Este 12 Sudeste 0.6 -- -- 84
2020-11-04 04:00:00 7.3 5 Este 10 Este 0.2 -- -- 83
2020-11-04 03:00:00 7.9 3 Sudeste 10 Sudoeste 0 -- -- 84
2020-11-04 02:00:00 7.9 2 Sur 9 Noroeste 0.4 -- -- 84
2020-11-04 01:00:00 8.1 5 Este 9 Nordeste 1.2 -- -- 84
2020-11-04 00:00:00 8.3 2 Oeste 8 Sudeste 0 -- -- 83
2020-11-03 23:00:00 9.1 0 Calma 6 Sudoeste 0.2 -- -- 82
2020-11-03 22:00:00 9.1 0 Calma 8 Sudeste 0 -- -- 80
2020-11-03 21:00:00 9.4 3 Oeste 8 Sudoeste 0.2 -- -- 82
2020-11-03 20:00:00 9.8 2 Oeste 7 Sudoeste 0.2 -- -- 81
2020-11-03 19:00:00 10.2 3 Sudoeste 21 Norte 1.4 -- -- 79
2020-11-03 18:00:00 10.8 6 Noroeste 18 Oeste 0.4 -- -- 72
2020-11-03 17:00:00 11.1 7 Sudoeste 21 Norte 0.4 -- -- 72
2020-11-03 16:00:00 11.4 3 Norte 18 Oeste 0.4 -- -- 77
2020-11-03 15:00:00 11.6 4 Noroeste 22 Norte 1 -- -- 79
2020-11-03 14:00:00 11.9 5 Norte 21 Nordeste 2.2 -- -- 80
2020-11-03 13:00:00 12 6 Noroeste 25 Noroeste 0.4 -- -- 80
2020-11-03 12:00:00 13 10 Oeste 20 Oeste 0 -- -- 69
2020-11-03 11:00:00 12.4 0 Calma 5 Este 0 -- -- 76
2020-11-03 10:00:00 11.5 0 Calma 10 Sudoeste 0 -- -- 80
2020-11-03 09:00:00 11 4 Sudeste 13 Sudoeste 0.2 -- -- 83
2020-11-03 08:00:00 10.7 0 Calma 3 Este 0.2 -- -- 83
2020-11-03 07:00:00 10.8 0 Calma 4 Este 0.2 -- -- 82
2020-11-03 06:00:00 10.8 0 Calma 9 Nordeste 0.2 -- -- 81
2020-11-03 05:00:00 11 5 Este 12 Nordeste 1.6 -- -- 81
2020-11-03 04:00:00 11.5 0 Calma 4 Norte 1.4 -- -- 82
2020-11-03 03:00:00 11.6 5 Este 13 Este 2 -- -- 80
2020-11-03 02:00:00 12 3 Este 10 Nordeste 0.2 -- -- 79
2020-11-03 01:00:00 12.3 3 Nordeste 14 Nordeste 0 -- -- 80
2020-11-03 00:00:00 12.7 2 Nordeste 9 Nordeste 0.2 -- -- 80
2020-11-02 23:00:00 12.9 5 Este 10 Norte 0 -- -- 80
2020-11-02 22:00:00 13.2 2 Norte 6 Sudeste 0 -- -- 74
2020-11-02 21:00:00 13.4 2 Sudeste 14 Sudoeste 0 -- -- 71
2020-11-02 20:00:00 13.5 12 Sudoeste 17 Sudoeste 0.2 -- -- 68
2020-11-02 19:00:00 14.8 5 Norte 16 Nordeste 0 -- -- 71
2020-11-02 18:00:00 15.2 5 Norte 19 Nordeste 0 -- -- 73
2020-11-02 17:00:00 17 6 Norte 32 Sudoeste 0 -- -- 68
2020-11-02 16:00:00 19.6 16 Oeste 41 Sudoeste 0 -- -- 52
2020-11-02 15:00:00 23.4 6 Oeste 13 Oeste 0 -- -- 34
2020-11-02 14:00:00 22.8 4 Oeste 14 Sudoeste 0 -- -- 35
2020-11-02 13:00:00 22.3 7 Oeste 22 Sudoeste 0 -- -- 35
2020-11-02 12:00:00 21.2 5 Sudoeste 23 Noroeste 0 -- -- 38
2020-11-02 11:00:00 21.1 6 Oeste 21 Sudoeste 0 -- -- 38
2020-11-02 10:00:00 20.4 14 Sudoeste 29 Sudoeste 0 -- -- 41
2020-11-02 09:00:00 19.2 2 Oeste 11 Sudoeste 0 -- -- 47
2020-11-02 08:00:00 19 3 Sudoeste 16 Oeste 0 -- -- 47
2020-11-02 07:00:00 19.5 7 Sudoeste 17 Oeste 0 -- -- 43
2020-11-02 06:00:00 20.8 6 Sudoeste 26 Oeste 0 -- -- 37
2020-11-02 05:00:00 20.8 5 Este 25 Sudoeste 0 -- -- 36
2020-11-02 04:00:00 21.5 10 Sur 28 Sur 0 -- -- 32
2020-11-02 03:00:00 20.9 5 Este 19 Sudoeste 0 -- -- 34
2020-11-02 02:00:00 19.9 4 Norte 12 Norte 0 -- -- 39
2020-11-02 01:00:00 20.5 6 Oeste 14 Sudoeste 0 -- -- 38
2020-11-02 00:00:00 19.8 4 Sur 14 Nordeste 0 -- -- 42